createdAt,value
2024-05-09T00:00:57.948Z,976.24
2024-05-09T00:01:57.929Z,976.20
2024-05-09T00:02:57.880Z,976.20
2024-05-09T00:03:57.917Z,976.20
2024-05-09T00:04:57.949Z,976.22
2024-05-09T00:05:57.889Z,976.19
2024-05-09T00:06:57.872Z,976.19
2024-05-09T00:07:57.859Z,976.19
2024-05-09T00:08:57.796Z,976.20
2024-05-09T00:09:57.859Z,976.19
2024-05-09T00:10:57.895Z,976.17
2024-05-09T00:11:57.944Z,976.17
2024-05-09T00:12:57.777Z,976.19
2024-05-09T00:13:57.774Z,976.21
2024-05-09T00:14:57.917Z,976.15
2024-05-09T00:15:58.203Z,976.16
2024-05-09T00:16:57.696Z,976.19
2024-05-09T00:17:57.780Z,976.15
2024-05-09T00:18:57.890Z,976.17
2024-05-09T00:19:57.678Z,976.18
2024-05-09T00:20:57.833Z,976.16
2024-05-09T00:21:57.653Z,976.16
2024-05-09T00:22:57.687Z,976.20
2024-05-09T00:23:57.613Z,976.19
2024-05-09T00:24:58.502Z,976.15
2024-05-09T00:25:57.616Z,976.16
2024-05-09T00:26:57.597Z,976.16
2024-05-09T00:27:57.560Z,976.11
2024-05-09T00:28:57.609Z,976.11
2024-05-09T00:29:57.531Z,976.14
2024-05-09T00:30:57.507Z,976.15
2024-05-09T00:31:57.648Z,976.15
2024-05-09T00:32:57.703Z,976.18
2024-05-09T00:33:57.961Z,976.19
2024-05-09T00:34:57.620Z,976.20
2024-05-09T00:35:57.490Z,976.19
2024-05-09T00:36:57.465Z,976.15
2024-05-09T00:37:57.504Z,976.18
2024-05-09T00:38:57.443Z,976.14
2024-05-09T00:39:57.412Z,976.13
2024-05-09T00:40:57.468Z,976.09
2024-05-09T00:41:57.400Z,976.09
2024-05-09T00:42:57.396Z,976.07
2024-05-09T00:43:57.412Z,976.07
2024-05-09T00:44:57.375Z,976.09
2024-05-09T00:45:57.333Z,976.08
2024-05-09T00:46:57.327Z,976.09
2024-05-09T00:47:57.604Z,976.08
2024-05-09T00:48:57.482Z,976.08
2024-05-09T00:49:57.302Z,976.07
2024-05-09T00:50:57.360Z,976.08
2024-05-09T00:51:57.246Z,976.08
2024-05-09T00:52:57.252Z,976.05
2024-05-09T00:53:57.266Z,976.05
2024-05-09T00:54:57.202Z,976.09
2024-05-09T00:55:57.802Z,976.06
2024-05-09T00:56:57.199Z,976.03
2024-05-09T00:57:57.180Z,976.03
2024-05-09T00:58:57.162Z,976.02
2024-05-09T00:59:57.174Z,976.00
2024-05-09T01:00:57.176Z,976.01
2024-05-09T01:01:57.193Z,975.97
2024-05-09T01:02:57.170Z,976.01
2024-05-09T01:03:57.265Z,976.01
2024-05-09T01:04:57.167Z,976.00
2024-05-09T01:05:57.096Z,976.01
2024-05-09T01:06:57.048Z,976.01
2024-05-09T01:07:57.160Z,976.00
2024-05-09T01:08:57.022Z,976.02
2024-05-09T01:09:57.031Z,975.97
2024-05-09T01:10:57.061Z,976.01
2024-05-09T01:11:57.100Z,975.98
2024-05-09T01:12:57.144Z,975.95
2024-05-09T01:13:57.016Z,975.99
2024-05-09T01:14:56.983Z,975.97
2024-05-09T01:15:56.932Z,975.96
2024-05-09T01:16:56.960Z,975.97
2024-05-09T01:17:57.452Z,975.97
2024-05-09T01:18:57.002Z,975.97
2024-05-09T01:19:56.991Z,975.98
2024-05-09T01:20:56.950Z,976.01
2024-05-09T01:21:56.960Z,975.95
2024-05-09T01:22:56.868Z,975.95
2024-05-09T01:23:57.791Z,975.96
2024-05-09T01:24:56.821Z,975.94
2024-05-09T01:25:58.355Z,975.97
2024-05-09T01:26:56.789Z,975.95
2024-05-09T01:27:56.770Z,975.98
2024-05-09T01:28:56.799Z,975.95
2024-05-09T01:29:56.964Z,975.96
2024-05-09T01:30:56.770Z,975.94
2024-05-09T01:31:56.786Z,975.95
2024-05-09T01:32:56.920Z,975.96
2024-05-09T01:33:56.814Z,975.96
2024-05-09T01:34:56.796Z,975.91
2024-05-09T01:35:56.694Z,975.90
2024-05-09T01:36:56.677Z,975.93
2024-05-09T01:37:56.748Z,975.90
2024-05-09T01:38:56.663Z,975.89
2024-05-09T01:39:57.493Z,975.86
2024-05-09T01:40:56.730Z,975.89
2024-05-09T01:41:56.636Z,975.87
2024-05-09T01:42:56.591Z,975.88
2024-05-09T01:43:56.655Z,975.88
2024-05-09T01:44:56.561Z,975.90
2024-05-09T01:45:56.571Z,975.93
2024-05-09T01:46:56.568Z,975.92
2024-05-09T01:47:56.780Z,975.95
2024-05-09T01:48:56.646Z,975.94
2024-05-09T01:49:56.564Z,975.95
2024-05-09T01:50:56.510Z,975.95
2024-05-09T01:51:56.455Z,975.97
2024-05-09T01:52:56.554Z,975.97
2024-05-09T01:53:56.447Z,975.98
2024-05-09T01:54:56.452Z,976.01
2024-05-09T01:55:56.437Z,975.98
2024-05-09T01:56:56.407Z,975.96
2024-05-09T01:57:56.388Z,975.97
2024-05-09T01:58:56.426Z,975.90
2024-05-09T01:59:56.390Z,975.92
2024-05-09T02:00:56.390Z,975.92
2024-05-09T02:01:57.747Z,975.91
2024-05-09T02:02:56.534Z,975.93
2024-05-09T02:03:56.497Z,975.94
2024-05-09T02:04:56.471Z,975.94
2024-05-09T02:05:56.405Z,975.93
2024-05-09T02:06:57.721Z,975.98
2024-05-09T02:07:56.348Z,975.92
2024-05-09T02:08:56.263Z,975.97
2024-05-09T02:09:56.219Z,975.97
2024-05-09T02:10:56.338Z,975.97
2024-05-09T02:11:56.327Z,975.98
2024-05-09T02:12:56.176Z,975.96
2024-05-09T02:13:56.172Z,975.92
2024-05-09T02:14:56.220Z,975.90
2024-05-09T02:15:56.151Z,975.95
2024-05-09T02:16:56.233Z,975.92
2024-05-09T02:17:56.321Z,975.93
2024-05-09T02:18:56.193Z,975.91
2024-05-09T02:19:56.122Z,975.94
2024-05-09T02:20:56.196Z,975.94
2024-05-09T02:21:56.076Z,975.91
2024-05-09T02:22:56.075Z,975.91
2024-05-09T02:23:56.058Z,975.91
2024-05-09T02:24:56.052Z,975.92
2024-05-09T02:25:56.115Z,975.96
2024-05-09T02:26:56.023Z,975.90
2024-05-09T02:27:56.001Z,975.98
2024-05-09T02:28:56.105Z,975.95
2024-05-09T02:29:56.022Z,975.96
2024-05-09T02:30:55.998Z,975.99
2024-05-09T02:31:56.018Z,975.98
2024-05-09T02:32:56.085Z,975.99
2024-05-09T02:33:56.139Z,975.98
2024-05-09T02:34:56.011Z,976.00
2024-05-09T02:35:55.941Z,975.96
2024-05-09T02:36:55.901Z,975.97
2024-05-09T02:37:55.971Z,975.97
2024-05-09T02:38:55.888Z,975.97
2024-05-09T02:39:55.847Z,975.98
2024-05-09T02:40:55.875Z,975.98
2024-05-09T02:41:55.813Z,976.00
2024-05-09T02:42:55.843Z,975.98
2024-05-09T02:43:55.871Z,976.01
2024-05-09T02:44:55.787Z,975.97
2024-05-09T02:45:55.766Z,976.00
2024-05-09T02:46:55.797Z,976.00
2024-05-09T02:47:55.952Z,976.02
2024-05-09T02:48:55.844Z,976.01
2024-05-09T02:49:55.730Z,976.02
2024-05-09T02:50:55.754Z,975.99
2024-05-09T02:51:55.738Z,975.98
2024-05-09T02:52:55.813Z,976.01
2024-05-09T02:53:55.820Z,975.97
2024-05-09T02:54:55.730Z,976.00
2024-05-09T02:55:55.758Z,975.98
2024-05-09T02:56:55.643Z,975.98
2024-05-09T02:57:55.635Z,975.95
2024-05-09T02:58:55.712Z,976.01
2024-05-09T02:59:55.683Z,975.99
2024-05-09T03:00:55.633Z,976.04
2024-05-09T03:01:55.650Z,976.03
2024-05-09T03:02:55.669Z,976.06
2024-05-09T03:03:55.820Z,976.07
2024-05-09T03:04:55.732Z,976.01
2024-05-09T03:05:55.533Z,976.04
2024-05-09T03:06:55.647Z,976.06
2024-05-09T03:07:55.565Z,976.07
2024-05-09T03:08:55.486Z,976.04
2024-05-09T03:09:55.494Z,976.09
2024-05-09T03:10:55.588Z,976.06
2024-05-09T03:11:55.636Z,976.05
2024-05-09T03:12:55.417Z,976.05
2024-05-09T03:13:55.471Z,976.05
2024-05-09T03:14:55.405Z,976.04
2024-05-09T03:15:55.413Z,976.04
2024-05-09T03:16:55.542Z,976.02
2024-05-09T03:17:55.579Z,976.04
2024-05-09T03:18:55.586Z,976.03
2024-05-09T03:19:55.374Z,976.07
2024-05-09T03:20:55.444Z,976.06
2024-05-09T03:21:55.302Z,976.00
2024-05-09T03:22:56.928Z,976.07
2024-05-09T03:23:55.378Z,976.06
2024-05-09T03:24:55.261Z,976.08
2024-05-09T03:25:55.303Z,976.04
2024-05-09T03:26:55.250Z,976.07
2024-05-09T03:27:55.256Z,976.09
2024-05-09T03:28:55.287Z,976.08
2024-05-09T03:29:55.217Z,976.07
2024-05-09T03:30:55.186Z,976.10
2024-05-09T03:31:55.233Z,976.12
2024-05-09T03:32:55.318Z,976.14
2024-05-09T03:33:55.255Z,976.17
2024-05-09T03:34:55.178Z,976.12
2024-05-09T03:35:55.156Z,976.12
2024-05-09T03:36:55.112Z,976.11
2024-05-09T03:37:55.189Z,976.12
2024-05-09T03:38:55.097Z,976.10
2024-05-09T03:39:55.097Z,976.11
2024-05-09T03:40:55.099Z,976.12
2024-05-09T03:41:55.040Z,976.05
2024-05-09T03:42:55.038Z,976.08
2024-05-09T03:43:55.060Z,976.06
2024-05-09T03:44:55.013Z,976.10
2024-05-09T03:45:55.048Z,976.07
2024-05-09T03:46:55.104Z,976.07
2024-05-09T03:47:55.280Z,976.07
2024-05-09T03:48:55.109Z,976.03
2024-05-09T03:49:54.989Z,976.03
2024-05-09T03:50:55.024Z,976.02
2024-05-09T03:51:54.924Z,976.05
2024-05-09T03:52:54.955Z,976.04
2024-05-09T03:53:54.930Z,976.05
2024-05-09T03:54:54.877Z,976.05
2024-05-09T03:55:54.914Z,976.03
2024-05-09T03:56:54.867Z,976.06
2024-05-09T03:57:54.839Z,976.01
2024-05-09T03:58:54.901Z,975.99
2024-05-09T03:59:54.816Z,976.00
2024-05-09T04:00:54.837Z,976.01
2024-05-09T04:01:54.891Z,976.03
2024-05-09T04:02:54.885Z,976.01
2024-05-09T04:03:54.861Z,976.03
2024-05-09T04:04:54.863Z,976.01
2024-05-09T04:05:54.748Z,976.04
2024-05-09T04:06:54.781Z,976.05
2024-05-09T04:07:54.806Z,976.08
2024-05-09T04:08:54.761Z,976.08
2024-05-09T04:09:54.710Z,976.10
2024-05-09T04:10:54.750Z,976.13
2024-05-09T04:11:54.889Z,976.15
2024-05-09T04:12:54.663Z,976.14
2024-05-09T04:13:54.670Z,976.14
2024-05-09T04:14:54.615Z,976.16
2024-05-09T04:15:54.609Z,976.15
2024-05-09T04:16:54.732Z,976.13
2024-05-09T04:17:54.811Z,976.13
2024-05-09T04:18:54.683Z,976.13
2024-05-09T04:19:54.655Z,976.16
2024-05-09T04:20:54.576Z,976.12
2024-05-09T04:21:54.531Z,976.10
2024-05-09T04:22:54.602Z,976.06
2024-05-09T04:23:54.503Z,976.11
2024-05-09T04:24:54.513Z,976.12
2024-05-09T04:25:54.533Z,976.10
2024-05-09T04:26:54.474Z,976.10
2024-05-09T04:27:54.520Z,976.11
2024-05-09T04:28:54.461Z,976.11
2024-05-09T04:29:54.438Z,976.11
2024-05-09T04:30:54.438Z,976.11
2024-05-09T04:31:54.566Z,976.11
2024-05-09T04:32:54.735Z,976.06
2024-05-09T04:33:54.579Z,976.08
2024-05-09T04:34:54.394Z,976.08
2024-05-09T04:35:54.354Z,976.06
2024-05-09T04:36:54.342Z,976.07
2024-05-09T04:37:54.392Z,976.07
2024-05-09T04:38:54.315Z,976.07
2024-05-09T04:39:54.346Z,976.02
2024-05-09T04:40:54.334Z,976.01
2024-05-09T04:41:54.271Z,976.02
2024-05-09T04:42:54.273Z,976.00
2024-05-09T04:43:54.315Z,976.00
2024-05-09T04:44:56.502Z,975.98
2024-05-09T04:45:54.237Z,976.03
2024-05-09T04:46:54.256Z,976.05
2024-05-09T04:47:54.346Z,976.04
2024-05-09T04:48:54.318Z,976.08
2024-05-09T04:49:54.576Z,976.08
2024-05-09T04:50:54.251Z,976.07
2024-05-09T04:51:54.209Z,976.10
2024-05-09T04:52:54.396Z,976.11
2024-05-09T04:53:54.158Z,976.10
2024-05-09T04:54:57.554Z,976.06
2024-05-09T04:55:54.291Z,976.10
2024-05-09T04:56:54.144Z,976.10
2024-05-09T04:57:54.118Z,976.13
2024-05-09T04:58:54.212Z,976.10
2024-05-09T04:59:54.260Z,976.07
2024-05-09T05:00:54.219Z,976.06
2024-05-09T05:01:54.383Z,976.05
2024-05-09T05:02:54.320Z,976.05
2024-05-09T05:03:55.872Z,976.08
2024-05-09T05:04:54.125Z,976.10
2024-05-09T05:05:54.040Z,976.03
2024-05-09T05:06:54.003Z,976.06
2024-05-09T05:07:53.970Z,976.04
2024-05-09T05:08:53.917Z,976.05
2024-05-09T05:09:53.955Z,976.04
2024-05-09T05:10:54.041Z,976.04
2024-05-09T05:11:53.981Z,976.07
2024-05-09T05:12:53.923Z,976.03
2024-05-09T05:13:53.930Z,976.04
2024-05-09T05:14:53.856Z,976.03
2024-05-09T05:15:53.894Z,976.03
2024-05-09T05:16:53.885Z,976.07
2024-05-09T05:17:53.950Z,976.04
2024-05-09T05:18:54.910Z,976.04
2024-05-09T05:19:53.917Z,976.05
2024-05-09T05:20:53.829Z,976.05
2024-05-09T05:21:53.853Z,976.03
2024-05-09T05:22:53.796Z,976.05
2024-05-09T05:23:53.788Z,976.06
2024-05-09T05:24:53.744Z,976.05
2024-05-09T05:25:54.425Z,976.01
2024-05-09T05:26:53.713Z,976.05
2024-05-09T05:27:53.756Z,976.03
2024-05-09T05:28:53.775Z,976.03
2024-05-09T05:29:53.654Z,976.05
2024-05-09T05:30:53.658Z,976.04
2024-05-09T05:31:53.709Z,976.06
2024-05-09T05:32:53.737Z,976.06
2024-05-09T05:33:53.764Z,976.07
2024-05-09T05:34:53.636Z,976.08
2024-05-09T05:35:53.578Z,976.09
2024-05-09T05:36:53.563Z,976.09
2024-05-09T05:37:53.567Z,976.13
2024-05-09T05:38:53.560Z,976.13
2024-05-09T05:39:53.542Z,976.17
2024-05-09T05:40:53.582Z,976.15
2024-05-09T05:41:53.513Z,976.13
2024-05-09T05:42:53.504Z,976.14
2024-05-09T05:43:53.543Z,976.10
2024-05-09T05:44:53.487Z,976.11
2024-05-09T05:45:53.478Z,976.11
2024-05-09T05:46:53.518Z,976.11
2024-05-09T05:47:53.564Z,976.10
2024-05-09T05:48:53.605Z,976.16
2024-05-09T05:49:53.530Z,976.13
2024-05-09T05:50:53.492Z,976.14
2024-05-09T05:51:53.383Z,976.19
2024-05-09T05:52:53.385Z,976.17
2024-05-09T05:53:53.359Z,976.18
2024-05-09T05:54:53.375Z,976.17
2024-05-09T05:55:53.403Z,976.24
2024-05-09T05:56:53.338Z,976.22
2024-05-09T05:57:53.316Z,976.25
2024-05-09T05:58:53.319Z,976.21
2024-05-09T05:59:53.316Z,976.24
2024-05-09T06:00:53.502Z,976.25
2024-05-09T06:01:53.332Z,976.27
2024-05-09T06:02:53.415Z,976.25
2024-05-09T06:03:53.448Z,976.26
2024-05-09T06:04:53.336Z,976.27
2024-05-09T06:05:53.284Z,976.23
2024-05-09T06:06:53.324Z,976.23
2024-05-09T06:07:53.257Z,976.21
2024-05-09T06:08:53.293Z,976.23
2024-05-09T06:09:53.210Z,976.25
2024-05-09T06:10:53.253Z,976.24
2024-05-09T06:11:53.264Z,976.21
2024-05-09T06:12:53.155Z,976.26
2024-05-09T06:13:53.194Z,976.27
2024-05-09T06:14:53.091Z,976.29
2024-05-09T06:15:53.122Z,976.29
2024-05-09T06:16:54.697Z,976.26
2024-05-09T06:17:53.250Z,976.27
2024-05-09T06:18:53.298Z,976.26
2024-05-09T06:19:53.349Z,976.28
2024-05-09T06:20:53.071Z,976.25
2024-05-09T06:21:53.017Z,976.25
2024-05-09T06:22:53.157Z,976.27
2024-05-09T06:23:52.991Z,976.30
2024-05-09T06:24:52.975Z,976.26
2024-05-09T06:25:52.984Z,976.27
2024-05-09T06:26:52.952Z,976.30
2024-05-09T06:27:53.021Z,976.31
2024-05-09T06:28:52.994Z,976.31
2024-05-09T06:29:52.896Z,976.30
2024-05-09T06:30:52.907Z,976.28
2024-05-09T06:31:52.864Z,976.26
2024-05-09T06:32:53.712Z,976.31
2024-05-09T06:33:53.047Z,976.34
2024-05-09T06:34:53.023Z,976.30
2024-05-09T06:35:53.243Z,976.29
2024-05-09T06:36:52.856Z,976.26
2024-05-09T06:37:52.878Z,976.30
2024-05-09T06:38:52.849Z,976.29
2024-05-09T06:39:52.753Z,976.29
2024-05-09T06:40:52.795Z,976.30
2024-05-09T06:41:52.731Z,976.26
2024-05-09T06:42:52.746Z,976.25
2024-05-09T06:43:52.800Z,976.29
2024-05-09T06:44:52.945Z,976.27
2024-05-09T06:45:52.961Z,976.29
2024-05-09T06:46:53.626Z,976.28
2024-05-09T06:47:52.873Z,976.30
2024-05-09T06:48:53.226Z,976.33
2024-05-09T06:49:52.834Z,976.33
2024-05-09T06:50:52.807Z,976.31
2024-05-09T06:51:52.682Z,976.31
2024-05-09T06:52:52.716Z,976.34
2024-05-09T06:53:52.981Z,976.32
2024-05-09T06:54:52.611Z,976.31
2024-05-09T06:55:52.786Z,976.30
2024-05-09T06:56:52.693Z,976.32
2024-05-09T06:57:52.624Z,976.35
2024-05-09T06:58:52.598Z,976.35
2024-05-09T06:59:52.584Z,976.35
2024-05-09T07:00:52.704Z,976.40
2024-05-09T07:01:52.542Z,976.39
2024-05-09T07:02:52.630Z,976.36
2024-05-09T07:03:52.677Z,976.32
2024-05-09T07:04:52.941Z,976.35
2024-05-09T07:05:52.612Z,976.34
2024-05-09T07:06:52.432Z,976.29
2024-05-09T07:07:53.355Z,976.31
2024-05-09T07:08:52.722Z,976.30
2024-05-09T07:09:52.437Z,976.33
2024-05-09T07:10:52.600Z,976.28
2024-05-09T07:11:52.471Z,976.29
2024-05-09T07:12:52.343Z,976.27
2024-05-09T07:13:52.420Z,976.24
2024-05-09T07:14:52.506Z,976.25
2024-05-09T07:15:52.339Z,976.25
2024-05-09T07:16:52.413Z,976.24
2024-05-09T07:17:52.645Z,976.26
2024-05-09T07:18:52.698Z,976.25
2024-05-09T07:19:52.488Z,976.26
2024-05-09T07:20:52.318Z,976.28
2024-05-09T07:21:52.374Z,976.26
2024-05-09T07:22:52.352Z,976.27
2024-05-09T07:23:52.397Z,976.26
2024-05-09T07:24:52.507Z,976.27
2024-05-09T07:25:52.294Z,976.29
2024-05-09T07:26:52.375Z,976.24
2024-05-09T07:27:52.309Z,976.29
2024-05-09T07:28:52.350Z,976.28
2024-05-09T07:29:52.805Z,976.28
2024-05-09T07:30:52.110Z,976.27
2024-05-09T07:31:52.156Z,976.26
2024-05-09T07:32:52.201Z,976.24
2024-05-09T07:33:52.154Z,976.25
2024-05-09T07:34:52.095Z,976.22
2024-05-09T07:35:52.217Z,976.20
2024-05-09T07:36:52.016Z,976.17
2024-05-09T07:37:52.062Z,976.18
2024-05-09T07:38:52.062Z,976.17
2024-05-09T07:39:52.022Z,976.15
2024-05-09T07:40:52.204Z,976.16
2024-05-09T07:41:52.748Z,976.13
2024-05-09T07:42:52.745Z,976.12
2024-05-09T07:43:52.818Z,976.10
2024-05-09T07:44:52.008Z,976.12
2024-05-09T07:45:54.539Z,976.12
2024-05-09T07:48:13.594Z,976.08
2024-05-09T07:51:32.710Z,976.14
2024-05-09T07:53:37.347Z,976.08
2024-05-09T07:53:51.965Z,976.12
2024-05-09T07:54:24.196Z,976.10
2024-05-09T07:55:24.080Z,976.11
2024-05-09T07:56:24.910Z,976.12
2024-05-09T07:57:23.979Z,976.09
2024-05-09T07:58:24.713Z,976.11
2024-05-09T07:59:23.996Z,976.09
2024-05-09T08:00:30.896Z,976.09
2024-05-09T08:01:24.002Z,976.09
2024-05-09T08:02:24.041Z,976.04
2024-05-09T08:03:24.306Z,976.08
2024-05-09T08:04:26.584Z,976.04
2024-05-09T08:05:24.300Z,976.00
2024-05-09T08:06:23.977Z,976.04
2024-05-09T08:07:24.002Z,976.02
2024-05-09T08:08:23.824Z,976.01
2024-05-09T08:09:23.811Z,976.03
2024-05-09T08:10:28.556Z,975.96
2024-05-09T08:11:24.145Z,976.04
2024-05-09T08:12:23.962Z,976.00
2024-05-09T08:13:23.819Z,976.00
2024-05-09T08:14:23.773Z,976.00
2024-05-09T08:15:23.927Z,976.00
2024-05-09T08:16:23.988Z,975.99
2024-05-09T08:17:23.910Z,975.98
2024-05-09T08:18:23.887Z,975.93
2024-05-09T08:19:23.900Z,975.95
2024-05-09T08:20:30.957Z,975.92
2024-05-09T08:21:23.721Z,975.92
2024-05-09T08:22:23.888Z,975.99
2024-05-09T08:23:23.783Z,975.91
2024-05-09T08:24:23.653Z,975.88
2024-05-09T08:25:23.695Z,975.93
2024-05-09T08:26:23.662Z,975.93
2024-05-09T08:27:23.730Z,975.90
2024-05-09T08:28:23.653Z,975.92
2024-05-09T08:29:23.826Z,975.93
2024-05-09T08:30:30.138Z,975.87
2024-05-09T08:31:23.641Z,975.89
2024-05-09T08:32:23.675Z,975.87
2024-05-09T08:33:23.770Z,975.86
2024-05-09T08:34:23.756Z,975.82
2024-05-09T08:35:23.778Z,975.80
2024-05-09T08:36:23.542Z,975.82
2024-05-09T08:37:27.650Z,975.79
2024-05-09T08:38:23.648Z,975.78
2024-05-09T08:39:23.749Z,975.78
2024-05-09T08:40:30.883Z,975.74
2024-05-09T08:41:23.436Z,975.74
2024-05-09T08:42:23.609Z,975.72
2024-05-09T08:43:23.746Z,975.76
2024-05-09T08:44:23.471Z,975.75
2024-05-09T08:45:23.418Z,975.75
2024-05-09T08:46:23.439Z,975.75
2024-05-09T08:47:23.418Z,975.79
2024-05-09T08:48:23.528Z,975.73
2024-05-09T08:49:23.485Z,975.73
2024-05-09T08:50:32.154Z,975.77
2024-05-09T08:51:23.314Z,975.75
2024-05-09T08:52:23.292Z,975.77
2024-05-09T08:53:23.339Z,975.74
2024-05-09T08:54:23.266Z,975.70
2024-05-09T08:55:23.836Z,975.71
2024-05-09T08:56:23.333Z,975.69
2024-05-09T08:57:23.211Z,975.68
2024-05-09T08:58:23.303Z,975.70
2024-05-09T08:59:23.734Z,975.68
2024-05-09T09:00:33.446Z,975.72
2024-05-09T09:01:23.411Z,975.75
2024-05-09T09:02:23.467Z,975.74
2024-05-09T09:03:23.189Z,975.73
2024-05-09T09:04:23.473Z,975.72
2024-05-09T09:05:23.369Z,975.75
2024-05-09T09:06:23.279Z,975.72
2024-05-09T09:07:23.217Z,975.71
2024-05-09T09:08:23.157Z,975.72
2024-05-09T09:09:22.994Z,975.74
2024-05-09T09:10:29.743Z,975.75
2024-05-09T09:11:23.220Z,975.72
2024-05-09T09:12:23.057Z,975.72
2024-05-09T09:13:23.156Z,975.75
2024-05-09T09:14:22.955Z,975.78
2024-05-09T09:15:23.332Z,975.75
2024-05-09T09:16:23.295Z,975.71
2024-05-09T09:17:23.280Z,975.71
2024-05-09T09:18:23.133Z,975.71
2024-05-09T09:19:23.207Z,975.68
2024-05-09T09:20:28.708Z,975.70
2024-05-09T09:21:22.968Z,975.63
2024-05-09T09:22:22.946Z,975.68
2024-05-09T09:23:22.950Z,975.67
2024-05-09T09:24:22.877Z,975.66
2024-05-09T09:25:22.962Z,975.63
2024-05-09T09:26:22.829Z,975.65
2024-05-09T09:27:22.931Z,975.67
2024-05-09T09:28:23.062Z,975.65
2024-05-09T09:29:22.803Z,975.64
2024-05-09T09:30:34.451Z,975.65
2024-05-09T09:31:22.945Z,975.67
2024-05-09T09:32:22.900Z,975.64
2024-05-09T09:33:23.030Z,975.66
2024-05-09T09:34:22.930Z,975.62
2024-05-09T09:35:23.053Z,975.63
2024-05-09T09:36:22.728Z,975.64
2024-05-09T09:37:22.772Z,975.61
2024-05-09T09:38:22.642Z,975.59
2024-05-09T09:39:22.614Z,975.60
2024-05-09T09:40:29.295Z,975.54
2024-05-09T09:41:22.614Z,975.58
2024-05-09T09:42:22.589Z,975.57
2024-05-09T09:43:23.253Z,975.55
2024-05-09T09:44:22.536Z,975.58
2024-05-09T09:45:22.591Z,975.57
2024-05-09T09:46:22.523Z,975.58
2024-05-09T09:47:22.533Z,975.51
2024-05-09T09:48:23.302Z,975.54
2024-05-09T09:49:22.507Z,975.56
2024-05-09T09:50:27.948Z,975.54
2024-05-09T09:51:22.487Z,975.53
2024-05-09T09:52:22.555Z,975.52
2024-05-09T09:53:22.452Z,975.53
2024-05-09T09:54:22.701Z,975.53
2024-05-09T09:55:22.539Z,975.58
2024-05-09T09:56:22.586Z,975.55
2024-05-09T09:57:22.445Z,975.57
2024-05-09T09:58:22.699Z,975.52
2024-05-09T09:59:22.560Z,975.52
2024-05-09T10:00:27.402Z,975.53
2024-05-09T10:01:22.799Z,975.54
2024-05-09T10:02:22.782Z,975.53
2024-05-09T10:03:22.529Z,975.52
2024-05-09T10:04:22.496Z,975.55
2024-05-09T10:05:22.613Z,975.56
2024-05-09T10:06:22.492Z,975.57
2024-05-09T10:07:22.358Z,975.57
2024-05-09T10:08:22.268Z,975.49
2024-05-09T10:09:22.254Z,975.55
2024-05-09T10:10:29.900Z,975.53
2024-05-09T10:11:22.503Z,975.46
2024-05-09T10:12:22.298Z,975.51
2024-05-09T10:13:22.378Z,975.50
2024-05-09T10:14:22.405Z,975.51
2024-05-09T10:15:22.261Z,975.49
2024-05-09T10:16:22.393Z,975.48
2024-05-09T10:17:22.141Z,975.48
2024-05-09T10:18:22.163Z,975.47
2024-05-09T10:19:22.131Z,975.44
2024-05-09T10:20:27.745Z,975.44
2024-05-09T10:21:22.087Z,975.40
2024-05-09T10:22:22.116Z,975.41
2024-05-09T10:23:22.132Z,975.41
2024-05-09T10:24:22.049Z,975.45
2024-05-09T10:25:22.242Z,975.41
2024-05-09T10:26:22.102Z,975.45
2024-05-09T10:27:21.979Z,975.46
2024-05-09T10:28:21.976Z,975.44
2024-05-09T10:29:21.964Z,975.43
2024-05-09T10:31:21.982Z,975.38
2024-05-09T10:32:21.943Z,975.38
2024-05-09T10:33:21.981Z,975.35
2024-05-09T10:34:22.250Z,975.37
2024-05-09T10:35:21.880Z,975.37
2024-05-09T10:36:21.882Z,975.35
2024-05-09T10:37:21.952Z,975.37
2024-05-09T10:38:21.824Z,975.38
2024-05-09T10:39:21.850Z,975.38
2024-05-09T10:40:26.610Z,975.39
2024-05-09T10:41:21.866Z,975.35
2024-05-09T10:42:21.893Z,975.35
2024-05-09T10:43:21.887Z,975.37
2024-05-09T10:44:21.778Z,975.32
2024-05-09T10:45:21.735Z,975.34
2024-05-09T10:46:22.021Z,975.32
2024-05-09T10:47:21.784Z,975.24
2024-05-09T10:48:21.783Z,975.25
2024-05-09T10:49:21.774Z,975.24
2024-05-09T10:50:28.183Z,975.21
2024-05-09T10:51:21.700Z,975.23
2024-05-09T10:52:21.841Z,975.21
2024-05-09T10:53:21.650Z,975.22
2024-05-09T10:54:21.642Z,975.19
2024-05-09T10:55:22.070Z,975.20
2024-05-09T10:56:21.618Z,975.18
2024-05-09T10:57:21.576Z,975.20
2024-05-09T10:58:21.639Z,975.18
2024-05-09T10:59:21.581Z,975.16
2024-05-09T11:00:27.740Z,975.10
2024-05-09T11:01:21.678Z,975.13
2024-05-09T11:02:21.632Z,975.09
2024-05-09T11:03:21.626Z,975.07
2024-05-09T11:04:21.776Z,974.99
2024-05-09T11:05:21.884Z,975.04
2024-05-09T11:06:21.481Z,975.07
2024-05-09T11:07:21.621Z,975.03
2024-05-09T11:08:21.451Z,975.00
2024-05-09T11:09:21.453Z,975.04
2024-05-09T11:10:27.736Z,974.98
2024-05-09T11:11:21.879Z,975.02
2024-05-09T11:12:23.536Z,975.04
2024-05-09T11:13:21.430Z,975.01
2024-05-09T11:14:21.403Z,975.02
2024-05-09T11:15:21.356Z,975.02
2024-05-09T11:16:21.785Z,974.99
2024-05-09T11:17:21.489Z,974.97
2024-05-09T11:18:24.639Z,974.98
2024-05-09T11:19:21.446Z,974.95
2024-05-09T11:20:29.086Z,974.94
2024-05-09T11:21:21.428Z,974.91
2024-05-09T11:22:21.365Z,974.88
2024-05-09T11:23:21.249Z,974.90
2024-05-09T11:24:21.295Z,974.93
2024-05-09T11:25:21.263Z,974.89
2024-05-09T11:26:21.233Z,974.91
2024-05-09T11:27:21.207Z,974.95
2024-05-09T11:28:21.272Z,974.92
2024-05-09T11:29:21.241Z,974.92
2024-05-09T11:30:26.996Z,974.95
2024-05-09T11:31:21.488Z,974.92
2024-05-09T11:32:21.190Z,974.87
2024-05-09T11:33:21.159Z,974.88
2024-05-09T11:34:21.169Z,974.84
2024-05-09T11:35:21.108Z,974.86
2024-05-09T11:36:21.099Z,974.85
2024-05-09T11:37:21.147Z,974.87
2024-05-09T11:38:21.115Z,974.87
2024-05-09T11:39:21.180Z,974.86
2024-05-09T11:40:25.639Z,974.87
2024-05-09T11:41:21.036Z,974.89
2024-05-09T11:42:21.007Z,974.87
2024-05-09T11:43:21.341Z,974.83
2024-05-09T11:44:21.029Z,974.83
2024-05-09T11:45:21.121Z,974.81
2024-05-09T11:46:21.061Z,974.81
2024-05-09T11:47:21.077Z,974.82
2024-05-09T11:48:21.125Z,974.87
2024-05-09T11:49:23.128Z,974.79
2024-05-09T11:50:27.203Z,974.80
2024-05-09T11:51:20.889Z,974.81
2024-05-09T11:52:20.939Z,974.78
2024-05-09T11:53:20.939Z,974.77
2024-05-09T11:54:20.839Z,974.78
2024-05-09T11:55:22.050Z,974.80
2024-05-09T11:56:20.850Z,974.78
2024-05-09T11:57:20.811Z,974.76
2024-05-09T11:58:20.981Z,974.74
2024-05-09T11:59:20.789Z,974.76
2024-05-09T12:00:29.244Z,974.74
2024-05-09T12:01:22.033Z,974.78
2024-05-09T12:02:20.888Z,974.75
2024-05-09T12:03:20.835Z,974.75
2024-05-09T12:04:20.883Z,974.74
2024-05-09T12:05:21.102Z,974.75
2024-05-09T12:06:20.699Z,974.73
2024-05-09T12:07:20.745Z,974.71
2024-05-09T12:08:20.688Z,974.69
2024-05-09T12:09:20.693Z,974.68
2024-05-09T12:10:26.040Z,974.66
2024-05-09T12:11:20.689Z,974.66
2024-05-09T12:12:20.627Z,974.67
2024-05-09T12:13:20.693Z,974.66
2024-05-09T12:14:20.651Z,974.65
2024-05-09T12:15:20.582Z,974.66
2024-05-09T12:16:20.805Z,974.64
2024-05-09T12:17:20.804Z,974.58
2024-05-09T12:18:20.571Z,974.64
2024-05-09T12:19:20.667Z,974.63
2024-05-09T12:20:28.569Z,974.61
2024-05-09T12:21:20.506Z,974.58
2024-05-09T12:22:20.530Z,974.59
2024-05-09T12:23:20.498Z,974.59
2024-05-09T12:24:20.499Z,974.60
2024-05-09T12:25:20.532Z,974.59
2024-05-09T12:26:20.572Z,974.56
2024-05-09T12:27:20.430Z,974.56
2024-05-09T12:28:20.470Z,974.57
2024-05-09T12:29:20.426Z,974.59
2024-05-09T12:30:32.263Z,974.58
2024-05-09T12:31:20.435Z,974.59
2024-05-09T12:32:20.445Z,974.60
2024-05-09T12:33:20.617Z,974.57